createdAt,value
2018-12-07T00:00:16.263Z,100439.25
2018-12-07T00:02:44.068Z,100438.56
2018-12-07T00:05:11.651Z,100440.30
2018-12-07T00:07:39.203Z,100442.16
2018-12-07T00:10:06.917Z,100427.96
2018-12-07T00:12:34.529Z,100434.38
2018-12-07T00:15:02.219Z,100426.11
2018-12-07T00:17:29.727Z,100425.64
2018-12-07T00:19:57.741Z,100423.25
2018-12-07T00:22:25.304Z,100425.00
2018-12-07T00:24:52.811Z,100420.63
2018-12-07T00:27:20.323Z,100424.18
2018-12-07T00:29:48.188Z,100426.63
2018-12-07T00:32:15.728Z,100428.59
2018-12-07T00:34:43.235Z,100426.58
2018-12-07T00:37:10.976Z,100420.53
2018-12-07T00:39:38.485Z,100417.24
2018-12-07T00:42:06.008Z,100414.58
2018-12-07T00:44:33.548Z,100410.80
2018-12-07T00:47:01.069Z,100400.03
2018-12-07T00:49:28.579Z,100395.29
2018-12-07T00:51:56.179Z,100390.81
2018-12-07T00:54:23.689Z,100389.83
2018-12-07T00:56:51.207Z,100387.05
2018-12-07T00:59:18.893Z,100383.22
2018-12-07T01:01:46.396Z,100386.41
2018-12-07T01:04:13.904Z,100388.74
2018-12-07T01:06:41.576Z,100388.27
2018-12-07T01:09:09.112Z,100386.13
2018-12-07T01:11:36.624Z,100385.02
2018-12-07T01:14:04.365Z,100379.41
2018-12-07T01:16:31.872Z,100382.48
2018-12-07T01:18:59.409Z,100383.58
2018-12-07T01:21:27.145Z,100374.30
2018-12-07T01:23:54.657Z,100378.00
2018-12-07T01:26:22.166Z,100370.25
2018-12-07T01:28:49.834Z,100363.47
2018-12-07T01:31:17.344Z,100362.03
2018-12-07T01:33:44.853Z,100363.18
2018-12-07T01:36:12.544Z,100362.31
2018-12-07T01:38:40.053Z,100354.16
2018-12-07T01:41:07.569Z,100357.58
2018-12-07T01:43:35.111Z,100353.39
2018-12-07T01:46:02.635Z,100352.22
2018-12-07T01:48:30.152Z,100346.33
2018-12-07T01:50:57.707Z,100346.27
2018-12-07T01:53:25.455Z,100346.15
2018-12-07T01:55:52.963Z,100345.74
2018-12-07T01:58:20.524Z,100344.70
2018-12-07T02:00:48.048Z,100346.42
2018-12-07T02:03:15.572Z,100340.39
2018-12-07T02:05:43.995Z,100336.36
2018-12-07T02:08:11.504Z,100331.08
2018-12-07T02:10:39.016Z,100326.56
2018-12-07T02:13:06.563Z,100320.83
2018-12-07T02:15:34.584Z,100320.13
2018-12-07T02:18:02.097Z,100323.45
2018-12-07T02:20:29.699Z,100325.03
2018-12-07T02:22:57.204Z,100323.55
2018-12-07T02:25:24.718Z,100321.01
2018-12-07T02:27:57.968Z,100318.42
2018-12-07T02:30:25.581Z,100317.59
2018-12-07T02:32:53.103Z,100309.50
2018-12-07T02:35:20.650Z,100306.48
2018-12-07T02:37:48.159Z,100299.02
2018-12-07T02:40:15.672Z,100303.56
2018-12-07T02:42:43.375Z,100299.16
2018-12-07T02:45:10.883Z,100298.84
2018-12-07T02:47:40.349Z,100296.93
2018-12-07T02:50:08.117Z,100292.81
2018-12-07T02:52:35.629Z,100292.13
2018-12-07T02:55:03.239Z,100289.86
2018-12-07T02:57:30.788Z,100291.45
2018-12-07T02:59:58.291Z,100284.55
2018-12-07T03:02:25.809Z,100286.44
2018-12-07T03:04:53.380Z,100282.15
2018-12-07T03:07:20.895Z,100279.80
2018-12-07T03:09:48.404Z,100274.45
2018-12-07T03:12:16.131Z,100269.58
2018-12-07T03:14:43.636Z,100274.94
2018-12-07T03:17:11.151Z,100274.02
2018-12-07T03:19:38.720Z,100267.12
2018-12-07T03:22:06.228Z,100268.91
2018-12-07T03:24:33.740Z,100265.75
2018-12-07T03:27:01.284Z,100263.75
2018-12-07T03:29:28.797Z,100258.04
2018-12-07T03:31:56.315Z,100261.87
2018-12-07T03:34:23.960Z,100254.56
2018-12-07T03:36:51.477Z,100247.78
2018-12-07T03:39:18.984Z,100250.14
2018-12-07T03:41:46.640Z,100241.59
2018-12-07T03:44:14.155Z,100233.17
2018-12-07T03:46:41.868Z,100236.48
2018-12-07T03:49:09.456Z,100228.95
2018-12-07T03:51:36.963Z,100231.36
2018-12-07T03:54:04.593Z,100226.81
2018-12-07T03:56:32.136Z,100229.16
2018-12-07T03:58:59.651Z,100231.31
2018-12-07T04:01:27.169Z,100232.42
2018-12-07T04:03:54.840Z,100227.83
2018-12-07T04:06:22.352Z,100232.71
2018-12-07T04:08:49.863Z,100230.47
2018-12-07T04:11:17.546Z,100224.84
2018-12-07T04:13:45.051Z,100222.23
2018-12-07T04:16:12.560Z,100219.09
2018-12-07T04:18:40.256Z,100213.36
2018-12-07T04:21:07.764Z,100206.94
2018-12-07T04:23:35.322Z,100202.48
2018-12-07T04:26:02.971Z,100209.59
2018-12-07T04:28:30.475Z,100205.55
2018-12-07T04:30:57.986Z,100205.81
2018-12-07T04:33:25.696Z,100202.92
2018-12-07T04:35:53.204Z,100204.19
2018-12-07T04:38:20.709Z,100203.17
2018-12-07T04:40:48.389Z,100198.88
2018-12-07T04:43:15.892Z,100200.02
2018-12-07T04:45:43.420Z,100192.90
2018-12-07T04:48:10.992Z,100196.82
2018-12-07T04:50:38.540Z,100194.95
2018-12-07T04:53:06.047Z,100192.63
2018-12-07T04:55:33.736Z,100191.04
2018-12-07T04:58:01.248Z,100188.03
2018-12-07T05:00:28.756Z,100185.18
2018-12-07T05:02:56.436Z,100180.91
2018-12-07T05:05:24.856Z,100185.44
2018-12-07T05:07:52.487Z,100175.36
2018-12-07T05:10:20.123Z,100165.63
2018-12-07T05:12:47.631Z,100162.49
2018-12-07T05:15:15.132Z,100156.50
2018-12-07T05:17:42.885Z,100153.38
2018-12-07T05:20:10.384Z,100154.64
2018-12-07T05:22:37.893Z,100160.33
2018-12-07T05:25:05.428Z,100158.78
2018-12-07T05:27:32.932Z,100156.52
2018-12-07T05:30:00.442Z,100151.30
2018-12-07T05:32:28.008Z,100151.31
2018-12-07T05:34:55.542Z,100148.97
2018-12-07T05:37:23.052Z,100140.92
2018-12-07T05:39:50.625Z,100144.05
2018-12-07T05:42:18.144Z,100152.98
2018-12-07T05:44:45.645Z,100142.51
2018-12-07T05:47:13.216Z,100147.17
2018-12-07T05:49:40.736Z,100142.59
2018-12-07T05:52:08.236Z,100138.72
2018-12-07T05:54:35.781Z,100136.92
2018-12-07T05:57:03.300Z,100132.24
2018-12-07T05:59:30.817Z,100129.17
2018-12-07T06:01:58.356Z,100130.22
2018-12-07T06:04:25.868Z,100124.59
2018-12-07T06:06:53.372Z,100134.37
2018-12-07T06:09:20.921Z,100128.19
2018-12-07T06:11:48.424Z,100130.84
2018-12-07T06:14:15.927Z,100130.84
2018-12-07T06:16:43.612Z,100129.18
2018-12-07T06:19:11.124Z,100125.23
2018-12-07T06:21:38.652Z,100118.70
2018-12-07T06:24:06.296Z,100120.84
2018-12-07T06:26:33.808Z,100116.47
2018-12-07T06:29:01.308Z,100105.07
2018-12-07T06:31:28.968Z,100102.47
2018-12-07T06:33:56.468Z,100109.41
2018-12-07T06:36:23.970Z,100110.40
2018-12-07T06:38:51.533Z,100103.95
2018-12-07T06:41:19.037Z,100104.80
2018-12-07T06:43:46.545Z,100097.94
2018-12-07T06:46:14.329Z,100093.42
2018-12-07T06:48:41.831Z,100092.02
2018-12-07T06:51:09.332Z,100088.55
2018-12-07T06:53:37.016Z,100085.55
2018-12-07T06:56:04.516Z,100086.30
2018-12-07T06:58:32.020Z,100078.83
2018-12-07T07:00:59.686Z,100073.41
2018-12-07T07:03:27.195Z,100072.35
2018-12-07T07:05:54.691Z,100066.65
2018-12-07T07:08:22.264Z,100068.91
2018-12-07T07:10:49.760Z,100065.84
2018-12-07T07:13:17.260Z,100066.30
2018-12-07T07:15:44.943Z,100057.23
2018-12-07T07:18:12.468Z,100059.72
2018-12-07T07:20:39.976Z,100056.37
2018-12-07T07:23:07.512Z,100051.16
2018-12-07T07:25:35.018Z,100060.95
2018-12-07T07:28:02.524Z,100060.89
2018-12-07T07:30:30.192Z,100059.09
2018-12-07T07:32:57.691Z,100053.33
2018-12-07T07:35:25.191Z,100060.36
2018-12-07T07:37:52.760Z,100050.33
2018-12-07T07:40:20.260Z,100048.09
2018-12-07T07:42:47.764Z,100038.00
2018-12-07T07:45:15.448Z,100039.64
2018-12-07T07:47:42.947Z,100029.33
2018-12-07T07:50:10.463Z,100031.13
2018-12-07T07:52:38.230Z,100030.32
2018-12-07T07:55:05.932Z,100027.41
2018-12-07T07:57:33.437Z,100030.87
2018-12-07T08:00:01.220Z,100037.86
2018-12-07T08:02:29.270Z,100032.67
2018-12-07T08:04:56.848Z,100025.20
2018-12-07T08:07:24.519Z,100036.59
2018-12-07T08:09:52.057Z,100035.58
2018-12-07T08:12:19.560Z,100029.20
2018-12-07T08:14:47.196Z,100026.94
2018-12-07T08:17:14.700Z,100024.92
2018-12-07T08:19:42.211Z,100030.07
2018-12-07T08:22:09.872Z,100027.66
2018-12-07T08:24:37.370Z,100032.39
2018-12-07T08:27:04.885Z,100019.19
2018-12-07T08:29:32.550Z,100020.22
2018-12-07T08:32:00.048Z,100012.42
2018-12-07T08:34:27.553Z,100012.70
2018-12-07T08:36:55.112Z,100007.37
2018-12-07T08:39:22.616Z,99999.28
2018-12-07T08:41:50.220Z,100004.67
2018-12-07T08:44:17.796Z,99996.03
2018-12-07T08:46:45.292Z,99995.02
2018-12-07T08:49:14.793Z,99991.31
2018-12-07T08:51:42.543Z,99996.24
2018-12-07T08:54:10.040Z,99982.86
2018-12-07T08:56:37.569Z,99983.70
2018-12-07T08:59:05.929Z,99986.83
2018-12-07T09:01:33.432Z,99975.84
2018-12-07T09:04:00.924Z,99966.85
2018-12-07T09:06:28.616Z,99971.78
2018-12-07T09:08:56.415Z,99970.24
2018-12-07T09:11:24.035Z,99969.53
2018-12-07T09:13:51.577Z,99966.07
2018-12-07T09:16:19.089Z,99972.41
2018-12-07T09:18:46.611Z,99969.78
2018-12-07T09:21:14.181Z,99978.71
2018-12-07T09:23:41.693Z,99969.64
2018-12-07T09:26:09.188Z,99965.00
2018-12-07T09:28:36.719Z,99964.67
2018-12-07T09:31:04.233Z,99967.70
2018-12-07T09:33:31.756Z,99963.36
2018-12-07T09:35:59.419Z,99961.52
2018-12-07T09:38:26.941Z,99962.61
2018-12-07T09:40:54.549Z,99956.48
2018-12-07T09:43:22.121Z,99948.06
2018-12-07T09:45:49.619Z,99954.89
2018-12-07T09:48:17.114Z,99940.63
2018-12-07T09:50:44.750Z,99937.64
2018-12-07T09:53:12.250Z,99938.20
2018-12-07T09:55:39.748Z,99929.41
2018-12-07T09:58:07.455Z,99928.35
2018-12-07T10:00:34.959Z,99932.61
2018-12-07T10:03:02.460Z,99923.31
2018-12-07T10:05:30.005Z,99918.73
2018-12-07T10:07:57.507Z,99912.95
2018-12-07T10:10:25.003Z,99907.53
2018-12-07T10:12:52.728Z,99894.18
2018-12-07T10:15:20.224Z,99892.97
2018-12-07T10:17:47.727Z,99886.28
2018-12-07T10:20:15.261Z,99887.69
2018-12-07T10:22:42.756Z,99885.38
2018-12-07T10:25:10.256Z,99880.36
2018-12-07T10:27:37.787Z,99871.41
2018-12-07T10:30:05.491Z,99871.41
2018-12-07T10:32:32.988Z,99858.15
2018-12-07T10:35:00.532Z,99855.29
2018-12-07T10:37:28.032Z,99855.69
2018-12-07T10:39:55.529Z,99845.73
2018-12-07T10:42:23.078Z,99839.34
2018-12-07T10:44:50.578Z,99837.91
2018-12-07T10:47:18.084Z,99829.62
2018-12-07T10:49:45.908Z,99821.33
2018-12-07T10:52:13.422Z,99817.36
2018-12-07T10:54:40.919Z,99815.56
2018-12-07T10:57:08.473Z,99813.34
2018-12-07T10:59:35.968Z,99811.56
2018-12-07T11:02:09.196Z,99803.73
2018-12-07T11:04:42.124Z,99807.38
2018-12-07T11:07:15.199Z,99798.73
2018-12-07T11:09:45.400Z,99799.73
2018-12-07T11:12:18.628Z,99794.59
2018-12-07T11:14:51.719Z,99783.68
2018-12-07T11:17:32.997Z,99774.89
2018-12-07T11:20:06.182Z,99766.81
2018-12-07T11:25:52.483Z,99753.84
2018-12-07T11:28:25.740Z,99756.43
2018-12-07T11:30:58.863Z,99748.45
2018-12-07T11:33:28.955Z,99742.37
2018-12-07T11:35:56.452Z,99735.72
2018-12-07T11:38:23.952Z,99732.52
2018-12-07T11:40:51.478Z,99717.86
2018-12-07T11:43:18.971Z,99709.30
2018-12-07T11:45:46.499Z,99709.62
2018-12-07T11:48:14.013Z,99699.17
2018-12-07T11:50:41.708Z,99698.49
2018-12-07T11:53:09.209Z,99696.72
2018-12-07T11:55:36.720Z,99676.53
2018-12-07T11:58:04.248Z,99678.19
2018-12-07T12:00:31.745Z,99675.86
2018-12-07T12:02:59.276Z,99665.99
2018-12-07T12:05:26.779Z,99652.50
2018-12-07T12:07:54.316Z,99653.14
2018-12-07T12:10:21.825Z,99646.86
2018-12-07T12:12:49.327Z,99645.22
2018-12-07T12:15:16.853Z,99632.54
2018-12-07T12:17:44.357Z,99625.80
2018-12-07T12:20:12.023Z,99621.17
2018-12-07T12:22:39.541Z,99622.80
2018-12-07T12:25:07.160Z,99609.27
2018-12-07T12:27:34.709Z,99593.58
2018-12-07T12:30:02.341Z,99591.56
2018-12-07T12:32:29.879Z,99582.85
2018-12-07T12:34:57.376Z,99583.63
2018-12-07T12:37:24.887Z,99581.05
2018-12-07T12:39:52.416Z,99573.55
2018-12-07T12:42:19.916Z,99569.78
2018-12-07T12:44:47.481Z,99560.80
2018-12-07T12:47:14.977Z,99554.59
2018-12-07T12:49:42.475Z,99553.74
2018-12-07T12:52:10.012Z,99543.91
2018-12-07T12:54:37.510Z,99546.67
2018-12-07T12:57:05.040Z,99536.78
2018-12-07T12:59:32.545Z,99528.50
2018-12-07T13:02:00.072Z,99520.73
2018-12-07T13:04:27.600Z,99525.14
2018-12-07T13:06:55.095Z,99505.41
2018-12-07T13:09:22.667Z,99512.07
2018-12-07T13:11:50.168Z,99493.75
2018-12-07T13:14:17.696Z,99483.91
2018-12-07T13:16:45.226Z,99474.80
2018-12-07T13:19:12.748Z,99462.45
2018-12-07T13:21:40.612Z,99458.50
2018-12-07T13:24:08.112Z,99457.48
2018-12-07T13:26:35.608Z,99446.47
2018-12-07T13:29:03.240Z,99442.67
2018-12-07T13:31:30.735Z,99427.19
2018-12-07T13:33:58.287Z,99428.37
2018-12-07T13:36:25.889Z,99432.18
2018-12-07T13:38:53.396Z,99410.62
2018-12-07T13:41:21.087Z,99405.19
2018-12-07T13:43:48.694Z,99397.63
2018-12-07T13:46:16.624Z,99399.34
2018-12-07T13:48:44.224Z,99410.28
2018-12-07T13:51:11.880Z,99396.81
2018-12-07T13:53:39.848Z,99398.03
2018-12-07T13:56:07.719Z,99406.76
2018-12-07T13:58:35.573Z,99398.03
2018-12-07T14:01:03.263Z,99397.44
2018-12-07T14:03:30.775Z,99387.56
2018-12-07T14:05:58.416Z,99390.70
2018-12-07T14:08:25.962Z,99373.83
2018-12-07T14:10:53.721Z,99366.00
2018-12-07T14:13:21.351Z,99361.07
2018-12-07T14:15:49.055Z,99365.60
2018-12-07T14:18:16.829Z,99372.34
2018-12-07T14:20:44.635Z,99358.02
2018-12-07T14:23:12.295Z,99359.27
2018-12-07T14:25:40.038Z,99355.12
2018-12-07T14:28:07.711Z,99359.19
2018-12-07T14:30:36.024Z,99353.23
2018-12-07T14:33:04.098Z,99352.53
2018-12-07T14:35:31.903Z,99347.13
2018-12-07T14:37:59.445Z,99350.89
2018-12-07T14:40:27.160Z,99339.66
2018-12-07T14:42:54.865Z,99349.80
2018-12-07T14:45:22.761Z,99348.38
2018-12-07T14:47:50.594Z,99347.67
2018-12-07T14:50:18.372Z,99323.64
2018-12-07T14:52:46.079Z,99318.80
2018-12-07T14:55:13.843Z,99307.20
2018-12-07T14:57:41.672Z,99300.16
2018-12-07T15:00:09.774Z,99303.24
2018-12-07T15:02:37.417Z,99298.28
2018-12-07T15:05:06.185Z,99292.65
2018-12-07T15:07:33.828Z,99303.06
2018-12-07T15:10:01.735Z,99290.95
2018-12-07T15:12:29.876Z,99291.79
2018-12-07T15:14:57.763Z,99281.19
2018-12-07T15:17:25.673Z,99275.39
2018-12-07T15:19:53.547Z,99272.30
2018-12-07T15:22:21.208Z,99269.22
2018-12-07T15:24:49.144Z,99260.13
2018-12-07T15:27:16.767Z,99261.81
2018-12-07T15:29:44.649Z,99266.11
2018-12-07T15:32:12.326Z,99265.96
2018-12-07T15:34:39.864Z,99244.91
2018-12-07T15:37:07.658Z,99227.62
2018-12-07T15:39:35.635Z,99225.27
2018-12-07T15:42:03.309Z,99219.88
2018-12-07T15:44:31.233Z,99207.28
2018-12-07T15:46:58.938Z,99215.02
2018-12-07T15:49:26.624Z,99212.76
2018-12-07T15:51:54.204Z,99206.34
2018-12-07T15:54:21.838Z,99195.89
2018-12-07T15:56:49.711Z,99182.83
2018-12-07T15:59:17.527Z,99172.20
2018-12-07T16:01:45.371Z,99164.94
2018-12-07T16:04:13.095Z,99166.81
2018-12-07T16:06:40.937Z,99164.45
2018-12-07T16:09:08.463Z,99167.34
2018-12-07T16:11:35.981Z,99161.45
2018-12-07T16:14:03.851Z,99150.12
2018-12-07T16:16:31.847Z,99136.36
2018-12-07T16:18:59.732Z,99129.00
2018-12-07T16:21:27.372Z,99120.78
2018-12-07T16:23:55.065Z,99116.23
2018-12-07T16:26:22.931Z,99111.86
2018-12-07T16:28:50.752Z,99117.58
2018-12-07T16:31:18.422Z,99103.50
2018-12-07T16:33:46.130Z,99109.88
2018-12-07T16:36:14.159Z,99106.53
2018-12-07T16:38:41.892Z,99088.99
2018-12-07T16:41:09.683Z,99085.81
2018-12-07T16:43:37.298Z,99085.55
2018-12-07T16:46:05.119Z,99078.78
2018-12-07T16:48:32.985Z,99062.81
2018-12-07T16:51:00.861Z,99068.20
2018-12-07T16:53:28.528Z,99049.18
2018-12-07T16:55:56.258Z,99038.55
2018-12-07T16:58:24.052Z,99035.80
2018-12-07T17:00:51.864Z,99024.83
2018-12-07T17:03:19.689Z,99023.30
2018-12-07T17:05:47.622Z,99024.86
2018-12-07T17:08:15.240Z,99021.03
2018-12-07T17:10:43.026Z,99015.85
2018-12-07T17:13:10.619Z,99011.86
2018-12-07T17:15:38.271Z,98999.03
2018-12-07T17:18:07.872Z,98999.42
2018-12-07T17:20:35.488Z,98987.00
2018-12-07T17:23:03.248Z,98985.42
2018-12-07T17:25:31.142Z,98981.13
2018-12-07T17:27:58.818Z,98975.84
2018-12-07T17:30:26.435Z,98981.22
2018-12-07T17:32:54.059Z,98976.21
2018-12-07T17:35:22.163Z,98979.66
2018-12-07T17:37:49.975Z,98970.42
2018-12-07T17:40:17.652Z,98965.48
2018-12-07T17:42:45.293Z,98958.09
2018-12-07T17:45:12.956Z,98949.48
2018-12-07T17:47:40.742Z,98949.33
2018-12-07T17:50:08.632Z,98931.49
2018-12-07T17:52:36.947Z,98936.73
2018-12-07T17:55:04.644Z,98924.25
2018-12-07T17:57:32.173Z,98913.20
2018-12-07T17:59:59.729Z,98909.30
2018-12-07T18:02:27.327Z,98913.90
2018-12-07T18:04:55.122Z,98909.06
2018-12-07T18:07:22.955Z,98905.92
2018-12-07T18:09:50.860Z,98905.15
2018-12-07T18:12:18.598Z,98894.52
2018-12-07T18:14:46.239Z,98894.53
2018-12-07T18:17:13.828Z,98893.81
2018-12-07T18:19:41.361Z,98879.44
2018-12-07T18:22:09.577Z,98884.98
2018-12-07T18:24:37.916Z,98883.20
2018-12-07T18:27:05.802Z,98885.84
2018-12-07T18:29:33.662Z,98880.45
2018-12-07T18:32:01.398Z,98893.53
2018-12-07T18:34:29.176Z,98878.13
2018-12-07T18:36:56.700Z,98880.64
2018-12-07T18:39:24.236Z,98875.53
2018-12-07T18:41:51.995Z,98867.02
2018-12-07T18:44:19.776Z,98862.27
2018-12-07T18:46:47.839Z,98858.34
2018-12-07T18:49:15.438Z,98854.43
2018-12-07T18:51:42.978Z,98853.35
2018-12-07T18:54:10.753Z,98869.35
2018-12-07T18:56:38.381Z,98860.52
2018-12-07T18:59:06.182Z,98860.73
2018-12-07T19:01:33.780Z,98887.95
2018-12-07T19:04:02.120Z,98910.30
2018-12-07T19:06:29.874Z,98925.94
2018-12-07T19:08:57.488Z,98932.89
2018-12-07T19:11:25.486Z,98939.15
2018-12-07T19:13:53.164Z,98959.88
2018-12-07T19:16:20.659Z,98989.97
2018-12-07T19:18:48.276Z,99014.78
2018-12-07T19:21:15.842Z,99021.39
2018-12-07T19:23:43.724Z,99013.73
2018-12-07T19:26:11.492Z,99030.56
2018-12-07T19:28:39.429Z,99027.25
2018-12-07T19:31:07.124Z,99045.94
2018-12-07T19:33:34.629Z,99075.30
2018-12-07T19:36:02.366Z,99074.45
2018-12-07T19:38:30.768Z,99069.00
2018-12-07T19:40:58.695Z,99098.48
2018-12-07T19:43:26.576Z,99092.47
2018-12-07T19:45:54.221Z,99114.55
2018-12-07T19:48:22.053Z,99131.25
2018-12-07T19:50:49.674Z,99128.88
2018-12-07T19:53:17.464Z,99122.45
2018-12-07T19:55:45.125Z,99135.05
2018-12-07T19:58:12.737Z,99147.84
2018-12-07T20:00:40.619Z,99156.58
2018-12-07T20:03:08.622Z,99166.16
2018-12-07T20:05:36.293Z,99173.72
2018-12-07T20:08:04.011Z,99186.19
2018-12-07T20:10:31.831Z,99193.67
2018-12-07T20:12:59.695Z,99197.36
2018-12-07T20:15:27.563Z,99200.11
2018-12-07T20:17:55.294Z,99195.84
2018-12-07T20:20:23.267Z,99202.11
2018-12-07T20:22:50.805Z,99206.73
2018-12-07T20:25:18.335Z,99218.02
2018-12-07T20:27:45.859Z,99237.63
2018-12-07T20:30:13.537Z,99242.53
2018-12-07T20:32:43.069Z,99265.00
2018-12-07T20:35:10.746Z,99268.01
2018-12-07T20:37:38.324Z,99254.95
2018-12-07T20:40:06.224Z,99273.70
2018-12-07T20:42:33.852Z,99275.09
2018-12-07T20:45:01.404Z,99279.61
2018-12-07T20:47:28.981Z,99292.39
2018-12-07T20:49:56.728Z,99295.63
2018-12-07T20:52:24.597Z,99313.94
2018-12-07T20:54:52.443Z,99317.63
2018-12-07T20:57:20.327Z,99311.28
2018-12-07T20:59:48.006Z,99330.70
2018-12-07T21:02:15.952Z,99342.12
2018-12-07T21:04:43.559Z,99357.23
2018-12-07T21:07:22.913Z,99367.95
2018-12-07T21:13:42.926Z,99393.24
2018-12-07T21:16:39.631Z,99404.76
2018-12-07T21:19:07.304Z,99418.42
2018-12-07T21:21:34.856Z,99406.05
2018-12-07T21:24:02.560Z,99424.19
2018-12-07T21:26:30.198Z,99421.83
2018-12-07T21:28:57.780Z,99416.08
2018-12-07T21:31:25.550Z,99420.38
2018-12-07T21:33:57.205Z,99432.95
2018-12-07T21:36:38.496Z,99434.22
2018-12-07T21:39:13.767Z,99433.70
2018-12-07T21:41:41.814Z,99432.95
2018-12-07T21:44:18.225Z,99445.83
2018-12-07T21:46:46.185Z,99451.32
2018-12-07T21:49:14.038Z,99461.89
2018-12-07T21:52:01.588Z,99454.13
2018-12-07T21:54:29.475Z,99465.00
2018-12-07T21:56:57.056Z,99465.07
2018-12-07T21:59:24.940Z,99471.05
2018-12-07T22:01:52.574Z,99478.13
2018-12-07T22:04:20.427Z,99485.34
2018-12-07T22:06:48.205Z,99487.59
2018-12-07T22:09:16.237Z,99494.38
2018-12-07T22:11:43.998Z,99490.05
2018-12-07T22:14:11.764Z,99513.43
2018-12-07T22:16:39.468Z,99508.89
2018-12-07T22:19:06.971Z,99512.62
2018-12-07T22:21:34.771Z,99516.02
2018-12-07T22:24:02.790Z,99515.34
2018-12-07T22:26:30.571Z,99523.50
2018-12-07T22:28:58.474Z,99519.12
2018-12-07T22:31:26.274Z,99530.23
2018-12-07T22:33:54.012Z,99536.44
2018-12-07T22:36:21.906Z,99535.64
2018-12-07T22:38:49.491Z,99544.37
2018-12-07T22:41:17.268Z,99548.65
2018-12-07T22:43:45.196Z,99544.42
2018-12-07T22:46:12.700Z,99546.87
2018-12-07T22:48:40.504Z,99551.99
2018-12-07T22:51:08.104Z,99558.63
2018-12-07T22:53:35.661Z,99553.90
2018-12-07T22:56:03.172Z,99553.70
2018-12-07T22:58:30.670Z,99567.30
2018-12-07T23:00:58.299Z,99553.49
2018-12-07T23:03:25.812Z,99561.59
2018-12-07T23:05:53.378Z,99567.90
2018-12-07T23:08:20.877Z,99562.25
2018-12-07T23:10:48.376Z,99557.52
2018-12-07T23:13:15.900Z,99570.90
2018-12-07T23:15:43.398Z,99566.47
2018-12-07T23:18:10.941Z,99574.97
2018-12-07T23:20:38.435Z,99581.51
2018-12-07T23:23:06.005Z,99572.13
2018-12-07T23:25:33.555Z,99577.88
2018-12-07T23:28:01.075Z,99580.44
2018-12-07T23:30:28.611Z,99584.55
2018-12-07T23:32:56.109Z,99583.70
2018-12-07T23:35:23.963Z,99592.70
2018-12-07T23:37:51.468Z,99590.20
2018-12-07T23:40:18.988Z,99598.67
2018-12-07T23:42:46.516Z,99605.94
2018-12-07T23:45:14.016Z,99602.77
2018-12-07T23:47:41.664Z,99606.65
2018-12-07T23:50:09.164Z,99601.77
2018-12-07T23:52:36.691Z,99610.55
2018-12-07T23:55:04.816Z,99612.54
2018-12-07T23:57:32.343Z,99612.87
2018-12-07T23:59:59.980Z,99604.65
